sensor_id;sensor_type;location;lat;lon;timestamp;pressure;altitude;pressure_sealevel;temperature;humidity
74466;BME280;62916;50.044;15.938;2023-08-07T00:01:02;97912.52;;;24.09;50.75
74466;BME280;62916;50.044;15.938;2023-08-07T00:03:33;97916.09;;;24.10;50.68
74466;BME280;62916;50.044;15.938;2023-08-07T00:06:05;97910.26;;;24.10;50.68
74466;BME280;62916;50.044;15.938;2023-08-07T00:08:36;97910.87;;;24.08;50.71
74466;BME280;62916;50.044;15.938;2023-08-07T00:11:08;97911.50;;;24.08;50.76
74466;BME280;62916;50.044;15.938;2023-08-07T00:13:39;97910.19;;;24.07;50.77
74466;BME280;62916;50.044;15.938;2023-08-07T00:16:10;97914.08;;;24.07;50.72
74466;BME280;62916;50.044;15.938;2023-08-07T00:18:41;97909.93;;;24.06;50.66
74466;BME280;62916;50.044;15.938;2023-08-07T00:21:13;97914.06;;;24.06;50.85
74466;BME280;62916;50.044;15.938;2023-08-07T00:23:43;97916.48;;;24.06;50.68
74466;BME280;62916;50.044;15.938;2023-08-07T00:26:14;97923.98;;;24.05;50.81
74466;BME280;62916;50.044;15.938;2023-08-07T00:28:45;97928.42;;;24.05;50.71
74466;BME280;62916;50.044;15.938;2023-08-07T00:31:15;97928.58;;;24.04;50.67
74466;BME280;62916;50.044;15.938;2023-08-07T00:33:47;97928.65;;;24.04;50.75
74466;BME280;62916;50.044;15.938;2023-08-07T00:36:21;97930.89;;;24.03;50.74
74466;BME280;62916;50.044;15.938;2023-08-07T00:38:52;97928.05;;;24.02;50.78
74466;BME280;62916;50.044;15.938;2023-08-07T00:41:23;97932.70;;;23.99;50.76
74466;BME280;62916;50.044;15.938;2023-08-07T00:43:54;97936.20;;;24.00;50.79
74466;BME280;62916;50.044;15.938;2023-08-07T00:46:26;97934.73;;;23.99;50.81
74466;BME280;62916;50.044;15.938;2023-08-07T00:48:57;97932.91;;;23.98;50.85
74466;BME280;62916;50.044;15.938;2023-08-07T00:51:28;97926.33;;;23.97;50.87
74466;BME280;62916;50.044;15.938;2023-08-07T00:54:00;97928.18;;;23.97;50.98
74466;BME280;62916;50.044;15.938;2023-08-07T00:56:31;97927.81;;;23.95;50.95
74466;BME280;62916;50.044;15.938;2023-08-07T00:59:02;97926.79;;;23.92;51.04
74466;BME280;62916;50.044;15.938;2023-08-07T01:01:34;97928.16;;;23.91;50.99
74466;BME280;62916;50.044;15.938;2023-08-07T01:04:05;97934.06;;;23.91;50.95
74466;BME280;62916;50.044;15.938;2023-08-07T01:06:36;97939.41;;;23.92;50.97
74466;BME280;62916;50.044;15.938;2023-08-07T01:09:07;97939.96;;;23.91;51.04
74466;BME280;62916;50.044;15.938;2023-08-07T01:11:45;97938.66;;;23.91;51.05
74466;BME280;62916;50.044;15.938;2023-08-07T01:14:26;97942.13;;;23.90;51.00
74466;BME280;62916;50.044;15.938;2023-08-07T01:17:07;97937.09;;;23.89;51.14
74466;BME280;62916;50.044;15.938;2023-08-07T01:19:39;97942.61;;;23.90;51.03
74466;BME280;62916;50.044;15.938;2023-08-07T01:22:12;97941.55;;;23.90;51.08
74466;BME280;62916;50.044;15.938;2023-08-07T01:24:45;97937.41;;;23.89;51.02
74466;BME280;62916;50.044;15.938;2023-08-07T01:27:31;97943.13;;;23.88;51.15
74466;BME280;62916;50.044;15.938;2023-08-07T01:30:11;97944.19;;;23.88;51.05
74466;BME280;62916;50.044;15.938;2023-08-07T01:32:53;97944.76;;;23.88;51.13
74466;BME280;62916;50.044;15.938;2023-08-07T01:35:27;97945.89;;;23.88;51.10
74466;BME280;62916;50.044;15.938;2023-08-07T01:38:01;97946.67;;;23.87;51.04
74466;BME280;62916;50.044;15.938;2023-08-07T01:40:33;97952.15;;;23.86;51.06
74466;BME280;62916;50.044;15.938;2023-08-07T01:43:04;97951.98;;;23.86;51.08
74466;BME280;62916;50.044;15.938;2023-08-07T01:45:36;97948.19;;;23.86;51.08
74466;BME280;62916;50.044;15.938;2023-08-07T01:48:07;97948.48;;;23.85;51.17
74466;BME280;62916;50.044;15.938;2023-08-07T01:50:38;97946.21;;;23.85;51.09
74466;BME280;62916;50.044;15.938;2023-08-07T01:53:09;97948.20;;;23.87;51.19
74466;BME280;62916;50.044;15.938;2023-08-07T01:55:41;97949.81;;;23.87;51.09
74466;BME280;62916;50.044;15.938;2023-08-07T01:58:12;97951.44;;;23.87;51.03
74466;BME280;62916;50.044;15.938;2023-08-07T02:00:43;97950.53;;;23.86;51.06
74466;BME280;62916;50.044;15.938;2023-08-07T02:03:14;97949.38;;;23.85;51.03
74466;BME280;62916;50.044;15.938;2023-08-07T02:05:47;97950.13;;;23.83;51.05
74466;BME280;62916;50.044;15.938;2023-08-07T02:08:18;97954.13;;;23.84;51.07
74466;BME280;62916;50.044;15.938;2023-08-07T02:10:49;97953.77;;;23.83;51.09
74466;BME280;62916;50.044;15.938;2023-08-07T02:13:20;97956.02;;;23.82;51.10
74466;BME280;62916;50.044;15.938;2023-08-07T02:15:51;97955.13;;;23.82;51.08
74466;BME280;62916;50.044;15.938;2023-08-07T02:18:22;97958.20;;;23.82;51.02
74466;BME280;62916;50.044;15.938;2023-08-07T02:20:53;97959.15;;;23.81;51.10
74466;BME280;62916;50.044;15.938;2023-08-07T02:23:24;97957.92;;;23.80;51.07
74466;BME280;62916;50.044;15.938;2023-08-07T02:25:55;97957.20;;;23.79;51.13
74466;BME280;62916;50.044;15.938;2023-08-07T02:28:25;97956.69;;;23.78;51.21
74466;BME280;62916;50.044;15.938;2023-08-07T02:30:56;97957.81;;;23.78;51.19
74466;BME280;62916;50.044;15.938;2023-08-07T02:33:27;97961.36;;;23.78;51.18
74466;BME280;62916;50.044;15.938;2023-08-07T02:35:59;97958.82;;;23.77;51.06
74466;BME280;62916;50.044;15.938;2023-08-07T02:38:30;97959.00;;;23.77;51.23
74466;BME280;62916;50.044;15.938;2023-08-07T02:41:02;97959.25;;;23.78;51.26
74466;BME280;62916;50.044;15.938;2023-08-07T02:43:33;97956.63;;;23.77;51.29
74466;BME280;62916;50.044;15.938;2023-08-07T02:46:04;97957.85;;;23.80;51.34
74466;BME280;62916;50.044;15.938;2023-08-07T02:48:35;97957.95;;;23.81;51.38
74466;BME280;62916;50.044;15.938;2023-08-07T02:51:05;97952.35;;;23.80;51.26
74466;BME280;62916;50.044;15.938;2023-08-07T02:53:37;97953.50;;;23.81;51.23
74466;BME280;62916;50.044;15.938;2023-08-07T02:56:07;97950.02;;;23.81;51.30
74466;BME280;62916;50.044;15.938;2023-08-07T02:58:38;97950.02;;;23.81;51.20
74466;BME280;62916;50.044;15.938;2023-08-07T03:01:09;97949.29;;;23.81;51.32
74466;BME280;62916;50.044;15.938;2023-08-07T03:03:41;97947.18;;;23.80;51.26
74466;BME280;62916;50.044;15.938;2023-08-07T03:06:12;97943.84;;;23.80;51.19
74466;BME280;62916;50.044;15.938;2023-08-07T03:08:43;97944.44;;;23.81;51.25
74466;BME280;62916;50.044;15.938;2023-08-07T03:11:14;97946.44;;;23.80;51.26
74466;BME280;62916;50.044;15.938;2023-08-07T03:13:45;97945.63;;;23.80;51.30
74466;BME280;62916;50.044;15.938;2023-08-07T03:16:16;97952.49;;;23.79;51.33
74466;BME280;62916;50.044;15.938;2023-08-07T03:18:47;97949.91;;;23.79;51.25
74466;BME280;62916;50.044;15.938;2023-08-07T03:21:18;97952.11;;;23.80;51.42
74466;BME280;62916;50.044;15.938;2023-08-07T03:23:50;97949.44;;;23.80;51.39
74466;BME280;62916;50.044;15.938;2023-08-07T03:26:21;97953.50;;;23.81;51.27
74466;BME280;62916;50.044;15.938;2023-08-07T03:28:52;97953.15;;;23.80;51.31
74466;BME280;62916;50.044;15.938;2023-08-07T03:31:22;97952.98;;;23.80;51.25
74466;BME280;62916;50.044;15.938;2023-08-07T03:33:53;97952.83;;;23.80;51.34
74466;BME280;62916;50.044;15.938;2023-08-07T03:36:25;97953.72;;;23.80;51.17
74466;BME280;62916;50.044;15.938;2023-08-07T03:38:55;97956.86;;;23.79;51.17
74466;BME280;62916;50.044;15.938;2023-08-07T03:41:26;97960.43;;;23.79;51.29
74466;BME280;62916;50.044;15.938;2023-08-07T03:43:57;97962.13;;;23.79;51.17
74466;BME280;62916;50.044;15.938;2023-08-07T03:46:28;97963.98;;;23.79;51.40
74466;BME280;62916;50.044;15.938;2023-08-07T03:48:59;97967.89;;;23.80;51.41
74466;BME280;62916;50.044;15.938;2023-08-07T03:51:30;97965.46;;;23.80;51.39
74466;BME280;62916;50.044;15.938;2023-08-07T03:54:01;97971.71;;;23.81;51.45
74466;BME280;62916;50.044;15.938;2023-08-07T03:56:32;97970.76;;;23.82;51.42
74466;BME280;62916;50.044;15.938;2023-08-07T03:59:04;97970.84;;;23.83;51.36
74466;BME280;62916;50.044;15.938;2023-08-07T04:01:35;97973.16;;;23.81;51.42
74466;BME280;62916;50.044;15.938;2023-08-07T04:04:06;97973.80;;;23.81;51.41
74466;BME280;62916;50.044;15.938;2023-08-07T04:06:37;97981.56;;;23.80;51.24
74466;BME280;62916;50.044;15.938;2023-08-07T04:09:08;97978.48;;;23.80;51.32
74466;BME280;62916;50.044;15.938;2023-08-07T04:11:41;97982.29;;;23.80;51.27
74466;BME280;62916;50.044;15.938;2023-08-07T04:14:12;97981.39;;;23.80;51.17
74466;BME280;62916;50.044;15.938;2023-08-07T04:16:43;97979.04;;;23.80;51.05
74466;BME280;62916;50.044;15.938;2023-08-07T04:19:14;97984.24;;;23.81;50.95
74466;BME280;62916;50.044;15.938;2023-08-07T04:21:45;97980.19;;;23.80;50.84
74466;BME280;62916;50.044;15.938;2023-08-07T04:24:16;97981.03;;;23.79;50.61
74466;BME280;62916;50.044;15.938;2023-08-07T04:26:47;97984.63;;;23.77;50.71
74466;BME280;62916;50.044;15.938;2023-08-07T04:29:18;97988.26;;;23.74;50.69
74466;BME280;62916;50.044;15.938;2023-08-07T04:31:49;97985.95;;;23.72;50.62
74466;BME280;62916;50.044;15.938;2023-08-07T04:34:19;97983.36;;;23.68;50.58
74466;BME280;62916;50.044;15.938;2023-08-07T04:36:50;97985.93;;;23.67;50.60
74466;BME280;62916;50.044;15.938;2023-08-07T04:39:23;97987.16;;;23.65;50.47
74466;BME280;62916;50.044;15.938;2023-08-07T04:41:54;97984.77;;;23.62;50.58
74466;BME280;62916;50.044;15.938;2023-08-07T04:44:25;97988.52;;;23.60;50.55
74466;BME280;62916;50.044;15.938;2023-08-07T04:46:55;97986.95;;;23.59;50.47
74466;BME280;62916;50.044;15.938;2023-08-07T04:49:27;97987.92;;;23.56;50.51
74466;BME280;62916;50.044;15.938;2023-08-07T04:51:58;97986.98;;;23.54;50.33
74466;BME280;62916;50.044;15.938;2023-08-07T04:54:41;97993.08;;;23.52;50.26
74466;BME280;62916;50.044;15.938;2023-08-07T04:57:12;97993.85;;;23.50;50.41
74466;BME280;62916;50.044;15.938;2023-08-07T04:59:43;97995.00;;;23.48;50.22
74466;BME280;62916;50.044;15.938;2023-08-07T05:02:13;97998.00;;;23.46;50.40
74466;BME280;62916;50.044;15.938;2023-08-07T05:04:44;97999.22;;;23.43;50.29
74466;BME280;62916;50.044;15.938;2023-08-07T05:07:15;98002.12;;;23.43;50.25
74466;BME280;62916;50.044;15.938;2023-08-07T05:09:46;98000.50;;;23.42;50.33
74466;BME280;62916;50.044;15.938;2023-08-07T05:12:19;98003.86;;;23.40;50.25
74466;BME280;62916;50.044;15.938;2023-08-07T05:14:50;98003.42;;;23.39;50.29
74466;BME280;62916;50.044;15.938;2023-08-07T05:17:20;98004.96;;;23.37;50.32
74466;BME280;62916;50.044;15.938;2023-08-07T05:19:51;98009.78;;;23.35;50.28
74466;BME280;62916;50.044;15.938;2023-08-07T05:22:22;98011.52;;;23.34;50.25
74466;BME280;62916;50.044;15.938;2023-08-07T05:24:53;98010.11;;;23.32;50.21
74466;BME280;62916;50.044;15.938;2023-08-07T05:27:24;98009.52;;;23.31;50.27
74466;BME280;62916;50.044;15.938;2023-08-07T05:29:54;98011.34;;;23.30;50.31
74466;BME280;62916;50.044;15.938;2023-08-07T05:32:26;98012.53;;;23.28;50.18
74466;BME280;62916;50.044;15.938;2023-08-07T05:34:57;98016.13;;;23.27;50.21
74466;BME280;62916;50.044;15.938;2023-08-07T05:37:27;98012.31;;;23.24;50.34
74466;BME280;62916;50.044;15.938;2023-08-07T05:40:01;98015.71;;;23.24;50.25
74466;BME280;62916;50.044;15.938;2023-08-07T05:42:32;98021.16;;;23.23;50.17
74466;BME280;62916;50.044;15.938;2023-08-07T05:45:05;98023.80;;;23.21;50.22
74466;BME280;62916;50.044;15.938;2023-08-07T05:47:36;98024.85;;;23.21;50.36
74466;BME280;62916;50.044;15.938;2023-08-07T05:50:08;98029.38;;;23.17;50.32
74466;BME280;62916;50.044;15.938;2023-08-07T05:52:40;98030.73;;;23.17;50.23
74466;BME280;62916;50.044;15.938;2023-08-07T05:55:11;98034.52;;;23.17;50.21
74466;BME280;62916;50.044;15.938;2023-08-07T05:57:42;98030.79;;;23.16;50.22
74466;BME280;62916;50.044;15.938;2023-08-07T06:00:14;98034.09;;;23.16;50.27
74466;BME280;62916;50.044;15.938;2023-08-07T06:02:46;98034.20;;;23.14;50.28
74466;BME280;62916;50.044;15.938;2023-08-07T06:05:19;98040.15;;;23.13;50.30
74466;BME280;62916;50.044;15.938;2023-08-07T06:07:50;98041.92;;;23.13;50.36
74466;BME280;62916;50.044;15.938;2023-08-07T06:10:21;98042.30;;;23.12;50.22
74466;BME280;62916;50.044;15.938;2023-08-07T06:12:52;98044.25;;;23.12;50.11
74466;BME280;62916;50.044;15.938;2023-08-07T06:15:23;98046.65;;;23.11;50.16
74466;BME280;62916;50.044;15.938;2023-08-07T06:17:54;98049.35;;;23.08;50.29
74466;BME280;62916;50.044;15.938;2023-08-07T06:20:25;98053.71;;;23.08;50.34
74466;BME280;62916;50.044;15.938;2023-08-07T06:22:57;98058.15;;;23.08;50.25
74466;BME280;62916;50.044;15.938;2023-08-07T06:25:28;98063.07;;;23.08;50.16
74466;BME280;62916;50.044;15.938;2023-08-07T06:27:58;98065.58;;;23.08;50.29
74466;BME280;62916;50.044;15.938;2023-08-07T06:30:29;98071.80;;;23.08;50.18
74466;BME280;62916;50.044;15.938;2023-08-07T06:33:01;98071.94;;;23.07;50.24
74466;BME280;62916;50.044;15.938;2023-08-07T06:35:32;98073.85;;;23.06;50.20
74466;BME280;62916;50.044;15.938;2023-08-07T06:38:07;98075.48;;;23.04;50.26
74466;BME280;62916;50.044;15.938;2023-08-07T06:40:38;98077.30;;;23.03;50.24
74466;BME280;62916;50.044;15.938;2023-08-07T06:43:10;98080.17;;;23.02;50.19
74466;BME280;62916;50.044;15.938;2023-08-07T06:45:40;98081.12;;;23.00;50.26
74466;BME280;62916;50.044;15.938;2023-08-07T06:48:11;98080.85;;;23.00;50.24
74466;BME280;62916;50.044;15.938;2023-08-07T06:50:42;98086.51;;;23.00;50.25
74466;BME280;62916;50.044;15.938;2023-08-07T06:53:13;98082.37;;;22.99;50.25
74466;BME280;62916;50.044;15.938;2023-08-07T06:55:44;98083.33;;;22.98;50.21
74466;BME280;62916;50.044;15.938;2023-08-07T06:58:15;98083.23;;;22.98;50.28
74466;BME280;62916;50.044;15.938;2023-08-07T07:00:46;98093.16;;;22.97;50.33
74466;BME280;62916;50.044;15.938;2023-08-07T07:03:17;98087.55;;;22.96;50.16
74466;BME280;62916;50.044;15.938;2023-08-07T07:05:50;98091.83;;;22.96;50.25
74466;BME280;62916;50.044;15.938;2023-08-07T07:08:21;98090.26;;;22.95;50.19
74466;BME280;62916;50.044;15.938;2023-08-07T07:10:52;98097.34;;;22.92;50.22
74466;BME280;62916;50.044;15.938;2023-08-07T07:13:24;98107.27;;;22.92;50.20
74466;BME280;62916;50.044;15.938;2023-08-07T07:15:56;98103.68;;;22.90;50.32
74466;BME280;62916;50.044;15.938;2023-08-07T07:18:26;98107.04;;;22.89;50.27
74466;BME280;62916;50.044;15.938;2023-08-07T07:21:00;98115.73;;;22.88;50.34
74466;BME280;62916;50.044;15.938;2023-08-07T07:23:31;98121.45;;;22.87;50.19
74466;BME280;62916;50.044;15.938;2023-08-07T07:26:02;98123.52;;;22.86;50.13
74466;BME280;62916;50.044;15.938;2023-08-07T07:28:33;98125.95;;;22.86;50.28
74466;BME280;62916;50.044;15.938;2023-08-07T07:31:05;98131.27;;;22.86;50.21
74466;BME280;62916;50.044;15.938;2023-08-07T07:33:38;98134.89;;;22.85;50.24
74466;BME280;62916;50.044;15.938;2023-08-07T07:36:14;98134.02;;;22.83;50.43
74466;BME280;62916;50.044;15.938;2023-08-07T07:38:46;98142.34;;;22.83;50.21
74466;BME280;62916;50.044;15.938;2023-08-07T07:41:17;98144.91;;;22.83;50.34
74466;BME280;62916;50.044;15.938;2023-08-07T07:43:49;98151.43;;;22.82;50.29
74466;BME280;62916;50.044;15.938;2023-08-07T07:46:20;98154.96;;;22.82;50.35
74466;BME280;62916;50.044;15.938;2023-08-07T07:48:51;98162.14;;;22.81;50.27
74466;BME280;62916;50.044;15.938;2023-08-07T07:51:22;98167.53;;;22.80;50.25
74466;BME280;62916;50.044;15.938;2023-08-07T07:53:52;98174.44;;;22.79;50.23
74466;BME280;62916;50.044;15.938;2023-08-07T07:56:42;98175.45;;;22.77;50.46
74466;BME280;62916;50.044;15.938;2023-08-07T07:59:14;98178.63;;;22.78;50.32
74466;BME280;62916;50.044;15.938;2023-08-07T08:01:44;98186.56;;;22.79;50.37
74466;BME280;62916;50.044;15.938;2023-08-07T08:04:15;98191.67;;;22.80;50.47
74466;BME280;62916;50.044;15.938;2023-08-07T08:06:47;98193.33;;;22.78;50.51
74466;BME280;62916;50.044;15.938;2023-08-07T08:09:18;98193.11;;;22.77;50.48
74466;BME280;62916;50.044;15.938;2023-08-07T08:11:49;98200.08;;;22.80;50.38
74466;BME280;62916;50.044;15.938;2023-08-07T08:14:20;98202.51;;;22.80;50.49
74466;BME280;62916;50.044;15.938;2023-08-07T08:16:50;98210.10;;;22.80;50.44
74466;BME280;62916;50.044;15.938;2023-08-07T08:19:21;98213.16;;;22.80;50.36
74466;BME280;62916;50.044;15.938;2023-08-07T08:21:52;98213.86;;;22.80;50.38
74466;BME280;62916;50.044;15.938;2023-08-07T08:24:23;98213.85;;;22.79;50.47
74466;BME280;62916;50.044;15.938;2023-08-07T08:26:54;98219.13;;;22.79;50.47
74466;BME280;62916;50.044;15.938;2023-08-07T08:29:25;98224.52;;;22.79;50.52
74466;BME280;62916;50.044;15.938;2023-08-07T08:31:57;98225.71;;;22.78;50.31
74466;BME280;62916;50.044;15.938;2023-08-07T08:34:29;98229.91;;;22.78;50.54
74466;BME280;62916;50.044;15.938;2023-08-07T08:37:00;98231.67;;;22.78;50.45
74466;BME280;62916;50.044;15.938;2023-08-07T08:39:30;98238.31;;;22.78;50.57
74466;BME280;62916;50.044;15.938;2023-08-07T08:42:02;98237.99;;;22.78;50.54
74466;BME280;62916;50.044;15.938;2023-08-07T08:44:38;98241.87;;;22.78;50.64
74466;BME280;62916;50.044;15.938;2023-08-07T08:47:10;98242.33;;;22.77;50.43
74466;BME280;62916;50.044;15.938;2023-08-07T08:49:45;98243.77;;;22.77;50.58
74466;BME280;62916;50.044;15.938;2023-08-07T08:52:17;98244.00;;;22.77;50.64
74466;BME280;62916;50.044;15.938;2023-08-07T08:54:49;98246.95;;;22.78;50.66
74466;BME280;62916;50.044;15.938;2023-08-07T08:57:20;98248.64;;;22.78;50.62
74466;BME280;62916;50.044;15.938;2023-08-07T08:59:52;98250.02;;;22.78;50.63
74466;BME280;62916;50.044;15.938;2023-08-07T09:02:23;98252.77;;;22.78;50.71
74466;BME280;62916;50.044;15.938;2023-08-07T09:04:55;98255.48;;;22.80;50.43
74466;BME280;62916;50.044;15.938;2023-08-07T09:07:28;98252.90;;;22.80;50.60
74466;BME280;62916;50.044;15.938;2023-08-07T09:09:59;98261.63;;;22.80;50.56
74466;BME280;62916;50.044;15.938;2023-08-07T09:12:33;98261.14;;;22.80;50.55
74466;BME280;62916;50.044;15.938;2023-08-07T09:15:06;98260.58;;;22.80;50.51
74466;BME280;62916;50.044;15.938;2023-08-07T09:17:41;98256.59;;;22.79;50.54
74466;BME280;62916;50.044;15.938;2023-08-07T09:20:14;98254.72;;;22.79;50.69
74466;BME280;62916;50.044;15.938;2023-08-07T09:22:45;98258.98;;;22.78;50.56
74466;BME280;62916;50.044;15.938;2023-08-07T09:25:28;98262.68;;;22.78;50.58
74466;BME280;62916;50.044;15.938;2023-08-07T09:27:59;98260.82;;;22.77;50.48
74466;BME280;62916;50.044;15.938;2023-08-07T09:30:34;98262.42;;;22.77;50.56
74466;BME280;62916;50.044;15.938;2023-08-07T09:33:06;98261.65;;;22.76;50.50
74466;BME280;62916;50.044;15.938;2023-08-07T09:35:37;98265.41;;;22.75;50.49
74466;BME280;62916;50.044;15.938;2023-08-07T09:38:10;98261.27;;;22.74;50.58
74466;BME280;62916;50.044;15.938;2023-08-07T09:40:40;98268.16;;;22.74;50.55
74466;BME280;62916;50.044;15.938;2023-08-07T09:43:22;98267.69;;;22.75;50.67
74466;BME280;62916;50.044;15.938;2023-08-07T09:45:53;98262.97;;;22.74;50.59
74466;BME280;62916;50.044;15.938;2023-08-07T09:48:32;98262.66;;;22.74;50.59
74466;BME280;62916;50.044;15.938;2023-08-07T09:51:09;98262.34;;;22.74;50.63
74466;BME280;62916;50.044;15.938;2023-08-07T09:53:40;98266.98;;;22.74;50.54
74466;BME280;62916;50.044;15.938;2023-08-07T09:56:13;98271.28;;;22.74;50.62
74466;BME280;62916;50.044;15.938;2023-08-07T09:58:48;98279.85;;;22.74;50.51
74466;BME280;62916;50.044;15.938;2023-08-07T10:01:19;98278.91;;;22.73;50.61
74466;BME280;62916;50.044;15.938;2023-08-07T10:03:51;98280.85;;;22.73;50.60
74466;BME280;62916;50.044;15.938;2023-08-07T10:06:22;98301.52;;;22.73;50.55
74466;BME280;62916;50.044;15.938;2023-08-07T10:08:54;98302.07;;;22.73;50.60
74466;BME280;62916;50.044;15.938;2023-08-07T10:11:25;98309.14;;;22.72;50.78
74466;BME280;62916;50.044;15.938;2023-08-07T10:13:57;98306.21;;;22.71;50.59
74466;BME280;62916;50.044;15.938;2023-08-07T10:16:28;98311.45;;;22.70;50.57
74466;BME280;62916;50.044;15.938;2023-08-07T10:18:59;98312.34;;;22.71;50.67
74466;BME280;62916;50.044;15.938;2023-08-07T10:21:30;98314.48;;;22.72;50.74
74466;BME280;62916;50.044;15.938;2023-08-07T10:24:03;98310.66;;;22.73;50.78
74466;BME280;62916;50.044;15.938;2023-08-07T10:26:36;98311.25;;;22.74;50.87
74466;BME280;62916;50.044;15.938;2023-08-07T10:29:10;98319.26;;;22.74;50.61
74466;BME280;62916;50.044;15.938;2023-08-07T10:31:44;98316.30;;;22.75;50.83
74466;BME280;62916;50.044;15.938;2023-08-07T10:34:15;98317.23;;;22.76;50.70
74466;BME280;62916;50.044;15.938;2023-08-07T10:36:46;98317.60;;;22.77;50.92
74466;BME280;62916;50.044;15.938;2023-08-07T10:39:17;98313.88;;;22.77;50.84
74466;BME280;62916;50.044;15.938;2023-08-07T10:41:48;98312.84;;;22.75;50.80
74466;BME280;62916;50.044;15.938;2023-08-07T10:44:23;98314.44;;;22.77;50.82
74466;BME280;62916;50.044;15.938;2023-08-07T10:46:55;98316.36;;;22.76;50.69
74466;BME280;62916;50.044;15.938;2023-08-07T10:49:34;98317.49;;;22.76;50.81
74466;BME280;62916;50.044;15.938;2023-08-07T10:52:09;98317.66;;;22.77;50.81
74466;BME280;62916;50.044;15.938;2023-08-07T10:54:44;98317.07;;;22.76;50.83
74466;BME280;62916;50.044;15.938;2023-08-07T10:57:16;98325.46;;;22.78;50.96
74466;BME280;62916;50.044;15.938;2023-08-07T10:59:50;98333.00;;;22.79;50.85
74466;BME280;62916;50.044;15.938;2023-08-07T11:02:29;98335.90;;;22.78;50.79
74466;BME280;62916;50.044;15.938;2023-08-07T11:05:00;98341.73;;;22.79;50.84
74466;BME280;62916;50.044;15.938;2023-08-07T11:07:31;98343.48;;;22.78;50.78
74466;BME280;62916;50.044;15.938;2023-08-07T11:10:02;98342.48;;;22.79;50.85
74466;BME280;62916;50.044;15.938;2023-08-07T11:12:35;98338.04;;;22.80;50.99
74466;BME280;62916;50.044;15.938;2023-08-07T11:15:15;98342.06;;;22.79;50.99
74466;BME280;62916;50.044;15.938;2023-08-07T11:17:46;98344.95;;;22.78;50.85
74466;BME280;62916;50.044;15.938;2023-08-07T11:20:17;98348.04;;;22.79;50.73
74466;BME280;62916;50.044;15.938;2023-08-07T11:22:49;98351.77;;;22.80;50.97
74466;BME280;62916;50.044;15.938;2023-08-07T11:25:21;98353.34;;;22.81;51.04
74466;BME280;62916;50.044;15.938;2023-08-07T11:27:51;98356.02;;;22.82;50.91
74466;BME280;62916;50.044;15.938;2023-08-07T11:30:22;98359.73;;;22.82;50.79
74466;BME280;62916;50.044;15.938;2023-08-07T11:32:53;98356.89;;;22.81;50.81
74466;BME280;62916;50.044;15.938;2023-08-07T11:35:25;98358.75;;;22.81;50.88
74466;BME280;62916;50.044;15.938;2023-08-07T11:37:56;98366.20;;;22.82;50.84
74466;BME280;62916;50.044;15.938;2023-08-07T11:40:27;98363.54;;;22.82;50.74
74466;BME280;62916;50.044;15.938;2023-08-07T11:42:58;98368.70;;;22.82;50.80
74466;BME280;62916;50.044;15.938;2023-08-07T11:45:29;98365.38;;;22.81;50.74
74466;BME280;62916;50.044;15.938;2023-08-07T11:48:00;98360.95;;;22.82;50.80
74466;BME280;62916;50.044;15.938;2023-08-07T11:50:33;98355.98;;;22.80;50.85
74466;BME280;62916;50.044;15.938;2023-08-07T11:53:04;98356.47;;;22.81;50.75
74466;BME280;62916;50.044;15.938;2023-08-07T11:55:35;98353.17;;;22.81;50.79
74466;BME280;62916;50.044;15.938;2023-08-07T11:58:06;98354.19;;;22.82;50.81
74466;BME280;62916;50.044;15.938;2023-08-07T12:00:37;98352.54;;;22.81;50.87
74466;BME280;62916;50.044;15.938;2023-08-07T12:03:25;98363.30;;;22.82;50.74
74466;BME280;62916;50.044;15.938;2023-08-07T12:05:58;98366.67;;;22.81;50.83
74466;BME280;62916;50.044;15.938;2023-08-07T12:08:34;98368.95;;;22.82;50.79
74466;BME280;62916;50.044;15.938;2023-08-07T12:11:06;98361.89;;;22.81;50.86
74466;BME280;62916;50.044;15.938;2023-08-07T12:13:40;98365.92;;;22.83;50.90
74466;BME280;62916;50.044;15.938;2023-08-07T12:16:11;98364.42;;;22.81;50.86
74466;BME280;62916;50.044;15.938;2023-08-07T12:18:47;98370.02;;;22.82;50.77
74466;BME280;62916;50.044;15.938;2023-08-07T12:21:20;98372.14;;;22.83;50.85
74466;BME280;62916;50.044;15.938;2023-08-07T12:23:56;98371.92;;;22.84;50.80
74466;BME280;62916;50.044;15.938;2023-08-07T12:26:27;98365.64;;;22.84;50.84
74466;BME280;62916;50.044;15.938;2023-08-07T12:28:59;98368.46;;;22.84;50.89
74466;BME280;62916;50.044;15.938;2023-08-07T12:31:30;98370.69;;;22.85;50.79
74466;BME280;62916;50.044;15.938;2023-08-07T12:34:02;98375.69;;;22.85;50.81
74466;BME280;62916;50.044;15.938;2023-08-07T12:36:36;98380.64;;;22.86;50.71
74466;BME280;62916;50.044;15.938;2023-08-07T12:39:07;98391.57;;;22.86;50.90
74466;BME280;62916;50.044;15.938;2023-08-07T12:41:37;98396.42;;;22.86;50.83
74466;BME280;62916;50.044;15.938;2023-08-07T12:44:11;98392.20;;;22.86;50.78
74466;BME280;62916;50.044;15.938;2023-08-07T12:46:42;98387.48;;;22.85;50.70
74466;BME280;62916;50.044;15.938;2023-08-07T12:49:13;98393.21;;;22.85;50.88
74466;BME280;62916;50.044;15.938;2023-08-07T12:51:45;98398.35;;;22.84;50.77
74466;BME280;62916;50.044;15.938;2023-08-07T12:54:16;98402.96;;;22.84;50.67
74466;BME280;62916;50.044;15.938;2023-08-07T12:56:47;98409.41;;;22.84;50.73
74466;BME280;62916;50.044;15.938;2023-08-07T12:59:18;98410.45;;;22.84;50.74
74466;BME280;62916;50.044;15.938;2023-08-07T13:01:48;98412.50;;;22.82;50.64
74466;BME280;62916;50.044;15.938;2023-08-07T13:04:22;98416.36;;;22.82;50.81
74466;BME280;62916;50.044;15.938;2023-08-07T13:06:53;98416.79;;;22.82;50.74
74466;BME280;62916;50.044;15.938;2023-08-07T13:09:25;98428.14;;;22.81;50.78
74466;BME280;62916;50.044;15.938;2023-08-07T13:11:56;98431.20;;;22.81;50.76
74466;BME280;62916;50.044;15.938;2023-08-07T13:14:27;98434.33;;;22.80;50.78